This is the latest recevied weather packets stored in our database for station/object OE-11149. If no packets are shown the sender has not sent any weather packets the latest 10 day(s).
| Time | Temp. | Humidity | Pressure | Rain* | Wind** | Luminosity | Snow |
|---|---|---|---|---|---|---|---|
| 1787943319 | 15° C | 87% | 851.8 hPa | 0 mm | - | 0 W/m² | - |
| 1787942493 | 15.56° C | 87% | 851.7 hPa | 0 mm | - | 0 W/m² | - |
| 1787941514 | 15.56° C | 85% | 851.2 hPa | 0 mm | - | 0 W/m² | - |
| 1787940693 | 16.11° C | 83% | 851.5 hPa | 0 mm | - | 0 W/m² | - |
| 1787940319 | 16.11° C | 82% | 851.5 hPa | 0 mm | - | 7 W/m² | - |
| 1787939719 | 16.67° C | 81% | 851.4 hPa | 0 mm | - | 13 W/m² | - |
| 1787938893 | 16.67° C | 80% | 851.5 hPa | 0 mm | - | 20 W/m² | - |
| 1787938520 | 16.67° C | 80% | 851.7 hPa | 0 mm | - | 13 W/m² | - |
| 1787937920 | 17.22° C | 80% | 851.8 hPa | 0 mm | - | 20 W/m² | - |
| 1787937093 | 17.22° C | 81% | 851.8 hPa | 0 mm | - | 26 W/m² | - |
| 1787936719 | 17.22° C | 80% | 851.8 hPa | 0 mm | - | 46 W/m² | - |
| 1787936119 | 17.78° C | 79% | 851.6 hPa | 0 mm | - | 60 W/m² | - |
| 1787935293 | 17.78° C | 77% | 851.6 hPa | 0 mm | - | 66 W/m² | - |
| 1787934920 | 18.33° C | 73% | 851.6 hPa | 0 mm | - | 119 W/m² | - |
| 1787934320 | 19.44° C | 67% | 851.2 hPa | 0 mm | - | 146 W/m² | - |
| 1787933493 | 22.22° C | 49% | 851 hPa | 0 mm | - | 146 W/m² | - |
| 1787933120 | 22.22° C | 49% | 850.9 hPa | 0 mm | - | 152 W/m² | - |
| 1787932520 | 22.78° C | 46% | 851.1 hPa | 0 mm | - | 179 W/m² | - |
| 1787931693 | 23.33° C | 44% | 851.4 hPa | 0 mm | - | 212 W/m² | - |
| 1787931320 | 23.89° C | 42% | 851.2 hPa | 0 mm | - | 325 W/m² | - |
| 1787930720 | 25.56° C | 37% | 851.2 hPa | 0 mm | - | 470 W/m² | - |
| 1787929893 | 24.44° C | 40% | 851.3 hPa | 0 mm | - | 437 W/m² | - |
| 1787929519 | 24.44° C | 41% | 851.3 hPa | 0 mm | - | 510 W/m² | - |
| 1787928919 | 25° C | 42% | 851.3 hPa | 0 mm | - | 517 W/m² | - |
| 1787928093 | 25.56° C | 42% | 851.3 hPa | 0 mm | - | 543 W/m² | - |
* Rain latest hour (hover to see other rain measurements)
** Current wind speed in m/s (hover to see current wind gust speed)